createdAt,value
2022-08-12T00:00:08.544Z,22.19
2022-08-12T00:02:55.246Z,22.13
2022-08-12T00:05:57.154Z,22.08
2022-08-12T00:08:52.200Z,21.98
2022-08-12T00:11:38.627Z,21.89
2022-08-12T00:14:24.157Z,21.78
2022-08-12T00:17:09.926Z,21.72
2022-08-12T00:19:55.364Z,21.66
2022-08-12T00:22:42.216Z,21.66
2022-08-12T00:25:51.187Z,21.70
2022-08-12T00:28:33.749Z,21.70
2022-08-12T00:31:20.181Z,21.70
2022-08-12T00:34:05.586Z,21.66
2022-08-12T00:36:51.241Z,21.59
2022-08-12T00:39:37.098Z,21.50
2022-08-12T00:42:13.269Z,21.39
2022-08-12T00:44:42.470Z,21.35
2022-08-12T00:47:24.976Z,21.32
2022-08-12T00:49:54.914Z,21.32
2022-08-12T00:52:23.596Z,21.33
2022-08-12T00:54:53.584Z,21.33
2022-08-12T00:57:24.029Z,21.32
2022-08-12T01:00:05.359Z,21.23
2022-08-12T01:02:39.693Z,21.17
2022-08-12T01:05:28.109Z,21.15
2022-08-12T01:08:28.109Z,21.10
2022-08-12T01:11:15.580Z,21.08
2022-08-12T01:13:48.953Z,21.04
2022-08-12T01:16:18.975Z,21.00
2022-08-12T01:18:45.806Z,20.92
2022-08-12T01:21:19.619Z,20.78
2022-08-12T01:24:29.972Z,20.67
2022-08-12T01:27:00.162Z,20.56
2022-08-12T01:29:34.606Z,20.52
2022-08-12T01:32:06.642Z,20.45
2022-08-12T01:34:39.537Z,20.38
2022-08-12T01:37:09.970Z,20.32
2022-08-12T01:40:33.339Z,20.22
2022-08-12T01:42:34.862Z,20.12
2022-08-12T01:45:03.183Z,20.05
2022-08-12T01:47:39.481Z,19.88
2022-08-12T01:50:31.334Z,19.95
2022-08-12T01:53:05.569Z,19.94
2022-08-12T01:55:37.306Z,19.91
2022-08-12T01:58:54.518Z,19.83
2022-08-12T02:01:26.876Z,19.80
2022-08-12T02:04:34.187Z,19.72
2022-08-12T02:07:31.399Z,19.69
2022-08-12T02:10:50.842Z,19.63
2022-08-12T02:13:42.107Z,19.59
2022-08-12T02:16:50.793Z,19.53
2022-08-12T02:19:42.176Z,19.54
2022-08-12T02:22:34.007Z,19.45
2022-08-12T02:25:12.430Z,19.44
2022-08-12T02:27:42.221Z,19.49
2022-08-12T02:30:11.814Z,19.50
2022-08-12T02:32:41.876Z,19.51
2022-08-12T02:35:17.741Z,19.49
2022-08-12T02:37:44.559Z,19.48
2022-08-12T02:40:13.839Z,19.49
2022-08-12T02:43:12.395Z,19.47
2022-08-12T02:46:06.632Z,19.48
2022-08-12T02:48:44.634Z,19.46
2022-08-12T02:51:17.510Z,19.46
2022-08-12T02:53:45.639Z,19.42
2022-08-12T02:56:33.174Z,19.36
2022-08-12T02:59:01.649Z,19.35
2022-08-12T03:01:34.310Z,19.33
2022-08-12T03:04:05.501Z,19.33
2022-08-12T03:06:43.857Z,19.23
2022-08-12T03:09:16.645Z,19.18
2022-08-12T03:12:09.764Z,19.12
2022-08-12T03:14:44.053Z,19.05
2022-08-12T03:17:17.141Z,19.04
2022-08-12T03:20:10.579Z,19.02
2022-08-12T03:22:34.276Z,18.99
2022-08-12T03:25:03.952Z,18.97
2022-08-12T03:27:31.996Z,18.92
2022-08-12T03:29:59.495Z,18.86
2022-08-12T03:32:35.744Z,18.81
2022-08-12T03:35:07.350Z,18.79
2022-08-12T03:37:37.429Z,18.80
2022-08-12T03:40:05.068Z,18.80
2022-08-12T03:42:40.931Z,18.79
2022-08-12T03:45:50.009Z,18.78
2022-08-12T03:48:38.813Z,18.73
2022-08-12T03:51:24.946Z,18.73
2022-08-12T03:54:11.778Z,18.71
2022-08-12T03:56:58.449Z,18.67
2022-08-12T03:59:44.186Z,18.67
2022-08-12T04:02:17.842Z,18.63
2022-08-12T04:04:49.281Z,18.64
2022-08-12T04:07:17.007Z,18.63
2022-08-12T04:09:47.050Z,18.63
2022-08-12T04:12:33.309Z,18.59
2022-08-12T04:15:01.955Z,18.53
2022-08-12T04:17:29.003Z,18.44
2022-08-12T04:19:58.064Z,18.40
2022-08-12T04:22:29.425Z,18.38
2022-08-12T04:25:03.217Z,18.35
2022-08-12T04:27:31.446Z,18.29
2022-08-12T04:30:32.969Z,18.30
2022-08-12T04:32:46.390Z,18.32
2022-08-12T04:35:13.452Z,18.35
2022-08-12T04:37:57.924Z,18.34
2022-08-12T04:40:30.830Z,18.32
2022-08-12T04:42:58.288Z,18.30
2022-08-12T04:45:25.072Z,18.29
2022-08-12T04:47:52.152Z,18.29
2022-08-12T04:50:27.240Z,18.28
2022-08-12T04:53:05.490Z,18.25
2022-08-12T04:55:34.736Z,18.21
2022-08-12T04:58:01.808Z,18.20
2022-08-12T05:00:28.769Z,18.14
2022-08-12T05:02:55.545Z,18.10
2022-08-12T05:05:23.664Z,18.08
2022-08-12T05:07:54.925Z,18.06
2022-08-12T05:10:33.731Z,18.06
2022-08-12T05:13:07.518Z,18.01
2022-08-12T05:15:37.630Z,17.99
2022-08-12T05:18:24.372Z,17.95
2022-08-12T05:20:52.062Z,17.94
2022-08-12T05:23:21.505Z,17.96
2022-08-12T05:25:50.602Z,17.98
2022-08-12T05:28:18.309Z,18.02
2022-08-12T05:30:45.995Z,18.05
2022-08-12T05:33:13.832Z,18.06
2022-08-12T05:35:43.397Z,18.02
2022-08-12T05:38:38.977Z,17.99
2022-08-12T05:41:19.108Z,17.96
2022-08-12T05:43:57.798Z,17.96
2022-08-12T05:46:26.037Z,18.02
2022-08-12T05:48:56.636Z,18.05
2022-08-12T05:51:25.478Z,18.09
2022-08-12T05:54:06.690Z,18.11
2022-08-12T05:56:36.269Z,18.13
2022-08-12T05:59:08.740Z,18.15
2022-08-12T06:02:12.276Z,18.19
2022-08-12T06:04:22.926Z,18.22
2022-08-12T06:06:53.357Z,18.26
2022-08-12T06:09:22.835Z,18.32
2022-08-12T06:12:04.590Z,18.34
2022-08-12T06:14:37.798Z,18.43
2022-08-12T06:17:09.180Z,18.45
2022-08-12T06:20:27.547Z,18.47
2022-08-12T06:22:23.811Z,18.47
2022-08-12T06:24:52.896Z,18.54
2022-08-12T06:27:20.766Z,18.58
2022-08-12T06:30:09.416Z,18.61
2022-08-12T06:32:35.442Z,18.66
2022-08-12T06:35:26.382Z,18.71
2022-08-12T06:37:56.538Z,18.80
2022-08-12T06:40:43.572Z,18.87
2022-08-12T06:43:10.318Z,18.99
2022-08-12T06:45:46.229Z,19.07
2022-08-12T06:48:14.113Z,19.15
2022-08-12T06:50:42.463Z,19.23
2022-08-12T06:53:11.555Z,19.31
2022-08-12T06:55:39.442Z,19.36
2022-08-12T06:58:25.661Z,19.44
2022-08-12T07:00:52.462Z,19.51
2022-08-12T07:03:27.991Z,19.56
2022-08-12T07:06:03.920Z,19.63
2022-08-12T07:08:33.356Z,19.67
2022-08-12T07:11:06.009Z,19.75
2022-08-12T07:14:12.699Z,19.81
2022-08-12T07:16:50.750Z,19.86
2022-08-12T07:19:17.752Z,19.90
2022-08-12T07:22:00.014Z,19.99
2022-08-12T07:24:30.092Z,20.03
2022-08-12T07:26:57.133Z,20.09
2022-08-12T07:29:26.099Z,20.14
2022-08-12T07:32:12.996Z,20.20
2022-08-12T07:34:42.325Z,20.23
2022-08-12T07:37:09.703Z,20.29
2022-08-12T07:39:36.753Z,20.35
2022-08-12T07:42:17.162Z,20.39
2022-08-12T07:44:44.126Z,20.47
2022-08-12T07:47:12.619Z,20.54
2022-08-12T07:50:05.289Z,20.60
2022-08-12T07:52:26.324Z,20.64
2022-08-12T07:54:52.958Z,20.72
2022-08-12T07:57:19.971Z,20.79
2022-08-12T07:59:47.080Z,20.87
2022-08-12T08:02:16.927Z,20.94
2022-08-12T08:05:00.685Z,21.02
2022-08-12T08:07:30.707Z,21.09
2022-08-12T08:10:02.588Z,21.17
2022-08-12T08:12:48.663Z,21.25
2022-08-12T08:15:16.611Z,21.31
2022-08-12T08:18:07.959Z,21.36
2022-08-12T08:20:39.681Z,21.43
2022-08-12T08:23:09.270Z,21.52
2022-08-12T08:25:38.904Z,21.58
2022-08-12T08:28:19.120Z,21.63
2022-08-12T08:30:47.847Z,21.70
2022-08-12T08:33:24.787Z,21.79
2022-08-12T08:36:07.610Z,21.85
2022-08-12T08:38:57.511Z,21.93
2022-08-12T08:42:13.800Z,22.02
2022-08-12T08:44:30.969Z,22.06
2022-08-12T08:46:57.826Z,22.14
2022-08-12T08:49:25.123Z,22.22
2022-08-12T08:51:52.390Z,22.29
2022-08-12T08:54:19.202Z,22.35
2022-08-12T08:56:52.440Z,22.42
2022-08-12T08:59:20.357Z,22.49
2022-08-12T09:01:47.569Z,22.57
2022-08-12T09:05:08.205Z,22.64
2022-08-12T09:07:16.725Z,22.71
2022-08-12T09:10:02.570Z,22.78
2022-08-12T09:12:54.029Z,22.87
2022-08-12T09:15:35.464Z,22.98
2022-08-12T09:18:08.399Z,23.16
2022-08-12T09:20:36.988Z,23.29
2022-08-12T09:25:58.334Z,23.61
2022-08-12T09:28:33.626Z,23.75
2022-08-12T09:31:02.633Z,23.84
2022-08-12T09:34:26.657Z,23.94
2022-08-12T09:36:30.608Z,24.02
2022-08-12T09:38:58.882Z,24.08
2022-08-12T09:42:33.657Z,24.16
2022-08-12T09:44:38.992Z,24.22
2022-08-12T09:47:10.539Z,24.30
2022-08-12T09:49:42.287Z,24.37
2022-08-12T09:52:17.193Z,24.45
2022-08-12T09:54:48.444Z,24.54
2022-08-12T09:58:46.234Z,24.59
2022-08-12T10:00:17.091Z,24.63
2022-08-12T10:03:00.992Z,24.67
2022-08-12T10:06:19.906Z,24.73
2022-08-12T10:08:23.604Z,24.76
2022-08-12T10:11:18.451Z,24.82
2022-08-12T10:13:48.819Z,24.88
2022-08-12T10:16:18.610Z,24.95
2022-08-12T10:18:57.492Z,24.97
2022-08-12T10:21:35.598Z,25.05
2022-08-12T10:24:06.071Z,25.16
2022-08-12T10:26:52.401Z,25.23
2022-08-12T10:30:37.779Z,25.28
2022-08-12T10:32:43.069Z,25.32
2022-08-12T10:35:14.895Z,25.40
2022-08-12T10:38:38.064Z,25.49
2022-08-12T10:40:33.399Z,25.60
2022-08-12T10:43:20.047Z,25.66
2022-08-12T10:45:53.406Z,25.71
2022-08-12T10:48:33.237Z,25.76
2022-08-12T10:51:51.369Z,25.85
2022-08-12T10:54:00.732Z,25.98
2022-08-12T10:56:34.497Z,26.06
2022-08-12T10:59:02.171Z,26.20
2022-08-12T11:04:20.168Z,26.32
2022-08-12T11:04:36.029Z,26.38
2022-08-12T11:08:35.972Z,26.46
2022-08-12T11:10:00.385Z,26.57
2022-08-12T11:12:55.067Z,26.72
2022-08-12T11:15:20.587Z,26.85
2022-08-12T11:17:53.712Z,26.95
2022-08-12T11:20:22.220Z,27.04
2022-08-12T11:22:59.470Z,27.12
2022-08-12T11:25:55.515Z,27.24
2022-08-12T11:28:15.823Z,27.36
2022-08-12T11:30:44.363Z,27.46
2022-08-12T11:34:03.115Z,27.58
2022-08-12T11:36:14.919Z,27.64
2022-08-12T11:38:42.357Z,27.67
2022-08-12T11:41:10.114Z,27.66
2022-08-12T11:43:50.246Z,27.71
2022-08-12T11:46:23.669Z,27.83
2022-08-12T11:48:50.921Z,27.90
2022-08-12T11:51:18.226Z,27.96
2022-08-12T11:53:58.625Z,28.01
2022-08-12T11:56:37.975Z,28.02
2022-08-12T12:02:01.175Z,28.24
2022-08-12T12:04:30.102Z,28.29
2022-08-12T12:07:07.593Z,28.31
2022-08-12T12:09:53.260Z,28.43
2022-08-12T12:12:22.657Z,28.51
2022-08-12T12:14:54.587Z,28.53
2022-08-12T12:17:23.908Z,28.60
2022-08-12T12:19:51.482Z,28.68
2022-08-12T12:22:23.482Z,28.72
2022-08-12T12:24:54.564Z,28.80
2022-08-12T12:27:37.589Z,28.87
2022-08-12T12:30:19.517Z,28.94
2022-08-12T12:32:55.990Z,29.02
2022-08-12T12:36:06.325Z,29.12
2022-08-12T12:38:12.364Z,29.18
2022-08-12T12:40:45.100Z,29.18
2022-08-12T12:43:13.918Z,29.21
2022-08-12T12:45:44.512Z,29.33
2022-08-12T12:48:21.247Z,29.50
2022-08-12T12:51:12.055Z,29.57
2022-08-12T12:54:06.468Z,29.61
2022-08-12T12:56:33.820Z,29.68
2022-08-12T12:59:03.934Z,29.79
2022-08-12T13:01:33.058Z,29.91
2022-08-12T13:04:01.680Z,29.99
2022-08-12T13:06:30.085Z,30.03
2022-08-12T13:09:02.528Z,30.04
2022-08-12T13:11:40.699Z,30.03
2022-08-12T13:14:28.368Z,30.04
2022-08-12T13:17:02.858Z,30.06
2022-08-12T13:19:46.889Z,30.18
2022-08-12T13:22:20.267Z,30.29
2022-08-12T13:24:54.585Z,30.37
2022-08-12T13:27:35.311Z,30.45
2022-08-12T13:30:10.684Z,30.45
2022-08-12T13:32:56.952Z,30.48
2022-08-12T13:35:33.482Z,30.53
2022-08-12T13:38:13.464Z,30.58
2022-08-12T13:40:40.537Z,30.60
2022-08-12T13:43:07.499Z,30.65
2022-08-12T13:45:35.605Z,30.71
2022-08-12T13:48:07.625Z,30.79
2022-08-12T13:50:36.601Z,30.85
2022-08-12T13:53:24.075Z,30.88
2022-08-12T13:55:59.313Z,30.97
2022-08-12T13:58:27.894Z,31.06
2022-08-12T14:00:58.337Z,31.15
2022-08-12T14:03:28.130Z,31.23
2022-08-12T14:05:59.571Z,31.29
2022-08-12T14:08:34.481Z,31.35
2022-08-12T14:11:02.249Z,31.42
2022-08-12T14:14:03.978Z,31.52
2022-08-12T14:16:37.643Z,31.60
2022-08-12T14:19:22.889Z,31.63
2022-08-12T14:22:00.804Z,31.69
2022-08-12T14:24:40.401Z,31.73
2022-08-12T14:27:11.163Z,31.76
2022-08-12T14:30:04.781Z,31.79
2022-08-12T14:32:31.445Z,31.82
2022-08-12T14:34:58.137Z,31.87
2022-08-12T14:37:56.817Z,31.93
2022-08-12T14:40:18.334Z,31.95
2022-08-12T14:42:45.095Z,31.98
2022-08-12T14:45:14.127Z,32.00
2022-08-12T14:47:58.638Z,32.01
2022-08-12T14:50:58.743Z,32.03
2022-08-12T14:55:13.851Z,32.08
2022-08-12T14:59:23.447Z,32.15
2022-08-12T15:01:52.001Z,32.23
2022-08-12T15:04:29.101Z,32.26
2022-08-12T15:06:56.167Z,32.35
2022-08-12T15:09:28.614Z,32.38
2022-08-12T15:12:04.112Z,32.41
2022-08-12T15:14:32.104Z,32.43
2022-08-12T15:17:02.694Z,32.47
2022-08-12T15:20:31.428Z,32.51
2022-08-12T15:22:36.922Z,32.59
2022-08-12T15:25:07.521Z,32.68
2022-08-12T15:28:11.063Z,32.72
2022-08-12T15:30:30.382Z,32.77
2022-08-12T15:32:57.502Z,32.76
2022-08-12T15:35:27.501Z,32.73
2022-08-12T15:38:18.768Z,32.72
2022-08-12T15:40:52.344Z,32.69
2022-08-12T15:43:50.922Z,32.69
2022-08-12T15:46:15.060Z,32.66
2022-08-12T15:48:46.898Z,32.67
2022-08-12T15:51:57.609Z,32.69
2022-08-12T15:54:30.720Z,32.72
2022-08-12T15:57:05.531Z,32.76
2022-08-12T15:59:51.327Z,32.77
2022-08-12T16:02:19.793Z,32.82
2022-08-12T16:04:50.510Z,32.84
2022-08-12T16:07:29.813Z,32.83
2022-08-12T16:10:08.730Z,32.84
2022-08-12T16:12:42.142Z,32.82
2022-08-12T16:15:13.396Z,32.80
2022-08-12T16:18:14.615Z,32.78
2022-08-12T16:20:33.715Z,32.77
2022-08-12T16:23:04.168Z,32.77
2022-08-12T16:26:00.154Z,32.80
2022-08-12T16:28:18.235Z,32.86
2022-08-12T16:30:50.089Z,32.89
2022-08-12T16:33:18.822Z,32.98
2022-08-12T16:35:50.038Z,33.05
2022-08-12T16:38:27.632Z,33.04
2022-08-12T16:40:57.136Z,33.04
2022-08-12T16:43:33.672Z,33.07
2022-08-12T16:46:07.917Z,33.10
2022-08-12T16:48:50.358Z,33.11
2022-08-12T16:51:19.967Z,33.17
2022-08-12T16:53:48.001Z,33.21
2022-08-12T16:56:16.904Z,33.23
2022-08-12T16:58:44.498Z,33.29
2022-08-12T17:01:15.659Z,33.26
2022-08-12T17:03:52.024Z,33.29
2022-08-12T17:06:22.009Z,33.26
2022-08-12T17:08:55.799Z,33.29
2022-08-12T17:11:24.737Z,33.37
2022-08-12T17:13:54.893Z,33.41
2022-08-12T17:16:21.569Z,33.36
2022-08-12T17:18:57.430Z,33.38
2022-08-12T17:21:41.854Z,33.27
2022-08-12T17:24:21.556Z,33.29
2022-08-12T17:26:54.075Z,33.32
2022-08-12T17:29:32.009Z,33.39
2022-08-12T17:32:11.230Z,33.44
2022-08-12T17:34:57.335Z,33.50
2022-08-12T17:37:23.991Z,33.55
2022-08-12T17:40:13.723Z,33.57
2022-08-12T17:42:47.333Z,33.57
2022-08-12T17:45:19.290Z,33.60
2022-08-12T17:48:01.312Z,33.59
2022-08-12T17:50:36.864Z,33.61
2022-08-12T17:53:08.036Z,33.50
2022-08-12T17:55:44.437Z,33.41
2022-08-12T17:58:35.548Z,33.33
2022-08-12T18:01:11.257Z,33.30
2022-08-12T18:04:04.229Z,33.26
2022-08-12T18:06:28.005Z,33.17
2022-08-12T18:08:58.888Z,33.18
2022-08-12T18:12:06.438Z,33.15
2022-08-12T18:14:33.074Z,33.10
2022-08-12T18:17:05.786Z,33.06
2022-08-12T18:20:06.994Z,33.01
2022-08-12T18:22:30.420Z,32.95
2022-08-12T18:25:04.764Z,32.86
2022-08-12T18:27:43.578Z,32.72
2022-08-12T18:30:16.313Z,32.51
2022-08-12T18:32:58.550Z,32.29
2022-08-12T18:35:47.654Z,32.07
2022-08-12T18:38:19.990Z,31.85
2022-08-12T18:41:09.521Z,31.63
2022-08-12T18:43:59.402Z,31.45
2022-08-12T18:46:32.283Z,31.25
2022-08-12T18:49:17.851Z,31.14
2022-08-12T18:51:55.662Z,31.00
2022-08-12T18:54:35.369Z,30.85
2022-08-12T18:57:16.217Z,30.76
2022-08-12T19:00:02.057Z,30.64
2022-08-12T19:02:36.154Z,30.53
2022-08-12T19:05:10.044Z,30.45
2022-08-12T19:07:58.006Z,30.32
2022-08-12T19:10:29.295Z,30.25
2022-08-12T19:13:23.879Z,30.04
2022-08-12T19:15:57.968Z,29.99
2022-08-12T19:18:30.870Z,29.92
2022-08-12T19:21:06.477Z,29.84
2022-08-12T19:23:38.590Z,29.76
2022-08-12T19:26:10.849Z,29.70
2022-08-12T19:28:40.546Z,29.62
2022-08-12T19:31:44.571Z,29.54
2022-08-12T19:35:53.798Z,29.42
2022-08-12T19:38:02.585Z,29.36
2022-08-12T19:40:20.521Z,29.27
2022-08-12T19:43:02.388Z,29.20
2022-08-12T19:45:50.518Z,29.13
2022-08-12T19:48:20.049Z,29.07
2022-08-12T19:50:50.165Z,29.00
2022-08-12T19:53:20.157Z,28.93
2022-08-12T19:55:52.663Z,28.86
2022-08-12T19:58:21.963Z,28.79
2022-08-12T20:00:56.340Z,28.72
2022-08-12T20:03:38.348Z,28.66
2022-08-12T20:06:13.507Z,28.61
2022-08-12T20:08:48.752Z,28.53
2022-08-12T20:12:13.983Z,28.45
2022-08-12T20:14:10.298Z,28.36
2022-08-12T20:16:57.164Z,28.32
2022-08-12T20:19:52.927Z,28.24
2022-08-12T20:22:29.734Z,28.17
2022-08-12T20:25:02.013Z,28.14
2022-08-12T20:28:04.478Z,28.07
2022-08-12T20:30:20.788Z,27.99
2022-08-12T20:33:17.828Z,27.94
2022-08-12T20:36:13.375Z,27.89
2022-08-12T20:38:39.755Z,27.81
2022-08-12T20:41:17.399Z,27.77
2022-08-12T20:43:46.393Z,27.72
2022-08-12T20:46:13.604Z,27.65
2022-08-12T20:48:43.602Z,27.60
2022-08-12T20:51:17.649Z,27.54
2022-08-12T20:53:57.697Z,27.48
2022-08-12T20:56:34.592Z,27.45
2022-08-12T20:59:14.878Z,27.41
2022-08-12T21:01:48.606Z,27.34
2022-08-12T21:04:36.918Z,27.31
2022-08-12T21:07:09.145Z,27.25
2022-08-12T21:09:44.341Z,27.21
2022-08-12T21:12:31.433Z,27.18
2022-08-12T21:15:23.305Z,27.12
2022-08-12T21:18:10.892Z,27.05
2022-08-12T21:20:48.548Z,26.99
2022-08-12T21:23:15.688Z,26.84
2022-08-12T21:25:46.066Z,26.89
2022-08-12T21:28:20.662Z,26.88
2022-08-12T21:31:11.432Z,26.87
2022-08-12T21:33:58.661Z,26.81
2022-08-12T21:36:32.309Z,26.74
2022-08-12T21:39:19.061Z,26.70
2022-08-12T21:41:51.451Z,26.67
2022-08-12T21:44:32.515Z,26.62
2022-08-12T21:47:20.514Z,26.42
2022-08-12T21:50:03.348Z,26.44
2022-08-12T21:52:35.681Z,26.40
2022-08-12T21:55:18.366Z,26.34
2022-08-12T21:57:50.754Z,26.27
2022-08-12T22:00:32.646Z,26.22
2022-08-12T22:04:01.891Z,26.18
2022-08-12T22:06:25.850Z,26.12
2022-08-12T22:09:02.635Z,26.06
2022-08-12T22:11:41.876Z,26.00
2022-08-12T22:14:21.264Z,25.97
2022-08-12T22:16:50.584Z,25.92
2022-08-12T22:19:19.570Z,25.88
2022-08-12T22:21:53.488Z,25.85
2022-08-12T22:24:26.845Z,25.80
2022-08-12T22:27:08.251Z,25.75
2022-08-12T22:30:25.467Z,25.69
2022-08-12T22:32:55.145Z,25.60
2022-08-12T22:35:55.936Z,25.56
2022-08-12T22:38:25.049Z,25.49
2022-08-12T22:41:06.501Z,25.42
2022-08-12T22:43:59.718Z,25.39
2022-08-12T22:46:34.655Z,25.32
2022-08-12T22:49:01.553Z,25.24
2022-08-12T22:51:38.212Z,25.21
2022-08-12T22:54:20.841Z,25.13
2022-08-12T22:57:05.079Z,25.06
2022-08-12T22:59:33.720Z,25.02
2022-08-12T23:02:28.816Z,24.91
2022-08-12T23:04:59.738Z,24.92
2022-08-12T23:07:27.672Z,24.84
2022-08-12T23:10:03.861Z,24.81
2022-08-12T23:12:49.518Z,24.75
2022-08-12T23:15:16.440Z,24.69
2022-08-12T23:17:43.408Z,24.61
2022-08-12T23:20:13.025Z,24.55
2022-08-12T23:22:40.174Z,24.46
2022-08-12T23:25:18.889Z,24.37
2022-08-12T23:28:29.419Z,24.29
2022-08-12T23:30:58.781Z,24.10
2022-08-12T23:34:00.681Z,23.88
2022-08-12T23:36:31.691Z,23.89
2022-08-12T23:40:15.480Z,23.82
2022-08-12T23:42:17.411Z,23.81
2022-08-12T23:44:43.960Z,23.74
2022-08-12T23:47:11.742Z,23.64
2022-08-12T23:49:58.920Z,23.59
2022-08-12T23:52:33.869Z,23.54
2022-08-12T23:55:23.405Z,23.51
2022-08-12T23:58:17.772Z,23.46
